createdAt,value
2017-10-02T03:30:41.664Z,63.50
2017-10-02T03:33:09.333Z,64.00
2017-10-02T03:35:37.045Z,63.90
2017-10-02T03:38:04.678Z,63.90
2017-10-02T03:40:32.299Z,63.90
2017-10-02T03:42:59.936Z,65.40
2017-10-02T03:45:27.547Z,65.50
2017-10-02T03:47:55.148Z,65.70
2017-10-02T03:50:22.759Z,65.00
2017-10-02T03:52:50.364Z,64.80
2017-10-02T03:55:19.122Z,65.40
2017-10-02T03:57:46.744Z,65.40
2017-10-02T04:00:14.361Z,66.80
2017-10-02T04:02:42.057Z,68.90
2017-10-02T04:05:09.648Z,69.80
2017-10-02T04:07:37.253Z,69.40
2017-10-02T04:10:05.636Z,69.10
2017-10-02T04:12:34.014Z,68.80
2017-10-02T04:15:04.193Z,65.90
2017-10-02T04:17:31.783Z,65.80
2017-10-02T04:20:00.147Z,64.50
2017-10-02T04:22:27.782Z,64.50
2017-10-02T04:24:55.397Z,64.50
2017-10-02T04:27:23.760Z,64.40
2017-10-02T04:29:52.532Z,64.60
2017-10-02T04:32:20.134Z,64.50
2017-10-02T04:34:47.734Z,64.50
2017-10-02T04:37:15.367Z,64.10
2017-10-02T04:39:42.977Z,63.60
2017-10-02T04:42:10.618Z,64.10
2017-10-02T04:44:38.227Z,63.70
2017-10-02T04:47:06.595Z,63.00
2017-10-02T04:49:35.001Z,62.70
2017-10-02T04:52:02.620Z,62.60
2017-10-02T04:54:30.444Z,63.50
2017-10-02T04:56:58.071Z,65.00
2017-10-02T04:59:26.436Z,68.00
2017-10-02T05:01:54.073Z,68.00
2017-10-02T05:04:21.672Z,68.90
2017-10-02T05:06:50.044Z,69.00
2017-10-02T05:09:18.450Z,66.80
2017-10-02T05:11:46.052Z,66.80
2017-10-02T05:14:13.700Z,66.30
2017-10-02T05:16:41.338Z,67.80
2017-10-02T05:19:08.941Z,68.70
2017-10-02T05:21:36.564Z,69.80
2017-10-02T05:24:04.165Z,69.20
2017-10-02T05:26:31.796Z,69.20
2017-10-02T05:28:59.404Z,68.80
2017-10-02T05:31:27.771Z,68.50
2017-10-02T05:33:55.420Z,68.40
2017-10-02T05:36:23.021Z,67.90
2017-10-02T05:38:51.406Z,67.80
2017-10-02T05:41:19.033Z,67.70
2017-10-02T05:43:46.650Z,69.00
2017-10-02T05:46:14.285Z,69.30
2017-10-02T05:48:41.896Z,69.70
2017-10-02T05:51:09.507Z,71.40
2017-10-02T05:53:37.153Z,71.20
2017-10-02T05:56:05.524Z,71.10
2017-10-02T05:58:33.175Z,71.00
2017-10-02T06:01:00.806Z,71.00
2017-10-02T06:03:28.413Z,70.10
2017-10-02T06:05:56.816Z,68.50
2017-10-02T06:08:24.421Z,68.50
2017-10-02T06:10:52.068Z,67.80
2017-10-02T06:13:19.680Z,68.80
2017-10-02T06:15:48.054Z,70.00
2017-10-02T06:18:16.466Z,70.00
2017-10-02T06:20:44.497Z,70.00
2017-10-02T06:23:12.094Z,70.00
2017-10-02T06:25:39.718Z,69.70
2017-10-02T06:28:08.094Z,70.90
2017-10-02T06:30:35.731Z,70.80
2017-10-02T06:33:03.339Z,70.80
2017-10-02T06:35:30.952Z,70.30
2017-10-02T06:37:59.374Z,70.90
2017-10-02T06:40:27.768Z,71.60
2017-10-02T06:42:55.447Z,71.60
2017-10-02T06:45:23.153Z,71.40
2017-10-02T06:47:50.761Z,70.90
2017-10-02T06:50:18.393Z,70.40
2017-10-02T06:52:46.766Z,70.60
2017-10-02T06:55:15.139Z,70.80
2017-10-02T06:57:43.089Z,70.70
2017-10-02T07:00:10.694Z,70.70
2017-10-02T07:02:38.334Z,71.10
2017-10-02T07:05:05.972Z,71.30
2017-10-02T07:07:33.585Z,70.00
2017-10-02T07:10:01.224Z,69.40
2017-10-02T07:12:29.607Z,69.60
2017-10-02T07:14:57.979Z,69.60
2017-10-02T07:17:26.385Z,70.20
2017-10-02T07:19:53.989Z,71.00
2017-10-02T07:22:21.623Z,70.60
2017-10-02T07:24:50.182Z,69.50
2017-10-02T07:27:17.777Z,69.40
2017-10-02T07:29:45.392Z,70.10
2017-10-02T07:32:13.782Z,71.60
2017-10-02T07:34:41.388Z,71.40
2017-10-02T07:37:09.029Z,70.90
2017-10-02T07:39:36.828Z,72.40
2017-10-02T07:42:04.434Z,72.10
2017-10-02T07:44:32.066Z,73.00
2017-10-02T07:47:00.436Z,74.40
2017-10-02T07:49:28.075Z,74.30
2017-10-02T07:51:55.737Z,74.60
2017-10-02T07:54:23.342Z,74.80
2017-10-02T07:56:51.708Z,72.30
2017-10-02T07:59:20.198Z,73.20
2017-10-02T08:01:48.886Z,71.60
2017-10-02T08:04:17.254Z,72.00
2017-10-02T08:06:45.692Z,72.90
2017-10-02T08:09:13.307Z,72.60
2017-10-02T08:11:41.694Z,73.30
2017-10-02T08:14:09.331Z,73.20
2017-10-02T08:16:36.938Z,71.10
2017-10-02T08:19:04.552Z,70.30
2017-10-02T08:21:32.168Z,70.30
2017-10-02T08:23:59.768Z,69.00
2017-10-02T08:26:27.386Z,70.20
2017-10-02T08:28:55.002Z,70.60
2017-10-02T08:31:23.372Z,69.20
2017-10-02T08:33:51.326Z,69.10
2017-10-02T08:36:18.981Z,68.20
2017-10-02T08:38:46.856Z,67.20
2017-10-02T08:41:14.483Z,67.10
2017-10-02T08:43:42.087Z,66.50
2017-10-02T08:46:09.729Z,65.10
2017-10-02T08:48:37.348Z,65.70
2017-10-02T08:51:04.957Z,65.10
2017-10-02T08:53:32.639Z,65.50
2017-10-02T08:56:00.240Z,66.70
2017-10-02T08:58:27.874Z,66.90
2017-10-02T09:00:56.250Z,65.30
2017-10-02T09:03:24.613Z,63.50
2017-10-02T09:05:52.251Z,63.50
2017-10-02T09:08:19.852Z,64.50
2017-10-02T09:10:48.247Z,65.20
2017-10-02T09:13:15.854Z,65.20
2017-10-02T09:15:43.452Z,66.50
2017-10-02T09:18:11.841Z,66.80
2017-10-02T09:20:39.489Z,66.70
2017-10-02T09:23:07.913Z,64.50
2017-10-02T09:25:35.518Z,64.40
2017-10-02T09:28:03.104Z,65.10
2017-10-02T09:30:30.739Z,65.40
2017-10-02T09:32:58.342Z,65.60
2017-10-02T09:35:25.931Z,66.50
2017-10-02T09:37:53.589Z,67.00
2017-10-02T09:40:21.198Z,66.60
2017-10-02T09:42:49.568Z,66.10
2017-10-02T09:45:17.954Z,65.10
2017-10-02T09:47:46.313Z,67.10
2017-10-02T09:50:14.743Z,65.50
2017-10-02T09:52:42.340Z,66.10
2017-10-02T09:55:09.945Z,66.40
2017-10-02T09:57:37.589Z,66.50
2017-10-02T10:00:05.949Z,65.70
2017-10-02T10:02:33.613Z,65.60
2017-10-02T10:05:01.211Z,64.70
2017-10-02T10:07:28.820Z,64.80
2017-10-02T10:09:56.436Z,63.90
2017-10-02T10:12:24.039Z,63.10
2017-10-02T10:14:51.698Z,62.60
2017-10-02T10:17:19.340Z,62.20
2017-10-02T10:19:46.940Z,62.00
2017-10-02T10:22:14.558Z,61.80
2017-10-02T10:24:42.174Z,62.50
2017-10-02T10:27:10.577Z,63.60
2017-10-02T10:29:38.194Z,63.50
2017-10-02T10:32:05.798Z,62.00
2017-10-02T10:34:33.410Z,59.10
2017-10-02T10:37:01.014Z,57.50
2017-10-02T10:39:28.641Z,57.50
2017-10-02T10:41:56.264Z,56.90
2017-10-02T10:44:24.054Z,54.60
2017-10-02T10:46:51.693Z,53.90
2017-10-02T10:49:19.290Z,53.20
2017-10-02T10:51:46.937Z,53.90
2017-10-02T10:54:14.535Z,54.70
2017-10-02T10:56:42.905Z,55.10
2017-10-02T10:59:11.308Z,55.20
2017-10-02T11:01:38.916Z,55.20
2017-10-02T11:04:06.557Z,55.40
2017-10-02T11:06:34.161Z,54.00
2017-10-02T11:09:04.587Z,57.50
2017-10-02T11:11:43.941Z,57.10
2017-10-02T11:14:11.548Z,57.20
2017-10-02T11:19:15.201Z,55.50
2017-10-02T11:21:43.266Z,54.80
2017-10-02T11:24:10.882Z,53.10
2017-10-02T11:26:38.495Z,52.20
2017-10-02T11:29:06.097Z,53.40
2017-10-02T11:31:33.705Z,54.70
2017-10-02T11:34:01.808Z,54.80
2017-10-02T11:36:29.406Z,53.90
2017-10-02T11:38:57.005Z,53.40
2017-10-02T11:41:24.612Z,53.70
2017-10-02T11:43:52.220Z,53.10
2017-10-02T11:46:20.285Z,53.60
2017-10-02T11:48:47.893Z,55.20
2017-10-02T11:51:15.521Z,55.90
2017-10-02T11:53:43.591Z,56.30
2017-10-02T11:56:11.971Z,57.90
2017-10-02T11:58:39.630Z,57.30
2017-10-02T12:01:07.293Z,57.30
2017-10-02T12:03:34.896Z,57.30
2017-10-02T12:06:02.905Z,57.70
2017-10-02T12:08:30.512Z,58.90
2017-10-02T12:10:58.113Z,58.80
2017-10-02T12:13:25.738Z,58.90
2017-10-02T12:15:53.332Z,58.80
2017-10-02T12:18:21.318Z,59.20
2017-10-02T12:20:48.943Z,59.80
2017-10-02T12:23:16.536Z,61.60
2017-10-02T12:25:44.161Z,62.40
2017-10-02T12:28:11.764Z,63.00
2017-10-02T12:30:39.739Z,63.20
2017-10-02T12:33:07.338Z,62.50
2017-10-02T12:35:34.949Z,63.10
2017-10-02T12:38:02.578Z,62.30
2017-10-02T12:40:30.202Z,62.50
2017-10-02T12:42:58.945Z,64.70
2017-10-02T12:45:26.544Z,64.70
2017-10-02T12:47:54.921Z,63.90
2017-10-02T12:50:23.319Z,62.90
2017-10-02T12:52:51.702Z,62.20
2017-10-02T12:55:19.713Z,62.10
2017-10-02T12:57:47.373Z,63.40
2017-10-02T13:00:14.971Z,61.90
2017-10-02T13:02:43.362Z,61.20
2017-10-02T13:05:11.759Z,59.60
2017-10-02T13:07:39.745Z,59.50
2017-10-02T13:10:07.371Z,56.50
2017-10-02T13:12:35.740Z,56.20
2017-10-02T13:15:04.147Z,58.00
2017-10-02T13:17:31.747Z,58.00
2017-10-02T13:19:59.703Z,58.80
2017-10-02T13:22:27.312Z,60.40
2017-10-02T13:24:55.673Z,62.30
2017-10-02T13:27:23.332Z,62.30
2017-10-02T13:29:50.932Z,61.60
2017-10-02T13:32:18.897Z,60.50
2017-10-02T13:34:46.498Z,61.00
2017-10-02T13:37:14.094Z,60.60
2017-10-02T13:39:42.480Z,62.30
2017-10-02T13:42:10.890Z,62.40
2017-10-02T13:44:38.906Z,62.40
2017-10-02T13:47:06.593Z,63.10
2017-10-02T13:49:34.973Z,62.50
2017-10-02T13:52:03.360Z,63.20
2017-10-02T13:54:31.814Z,64.50
2017-10-02T13:56:59.885Z,64.50
2017-10-02T13:59:27.491Z,64.20
2017-10-02T14:01:55.090Z,65.00
2017-10-02T14:04:22.689Z,64.50
2017-10-02T14:06:51.049Z,65.30
2017-10-02T14:09:19.032Z,65.30
2017-10-02T14:11:47.413Z,65.70
2017-10-02T14:14:15.784Z,66.70
2017-10-02T14:16:44.178Z,66.70
2017-10-02T14:19:11.780Z,66.60
2017-10-02T14:21:39.768Z,66.80
2017-10-02T14:24:07.377Z,67.40
2017-10-02T14:26:34.990Z,66.60
2017-10-02T14:29:02.954Z,65.80
2017-10-02T14:31:30.609Z,66.60
2017-10-02T14:33:58.323Z,67.20
2017-10-02T14:36:31.017Z,67.50
2017-10-02T14:48:05.212Z,69.20
2017-10-02T14:53:26.893Z,68.80
2017-10-02T14:58:50.961Z,69.70
2017-10-02T15:01:47.139Z,69.40
2017-10-02T15:04:16.804Z,69.20
2017-10-02T15:06:58.053Z,69.30
2017-10-02T15:09:28.386Z,68.90
2017-10-02T15:12:02.434Z,69.00
2017-10-02T15:14:41.051Z,70.70
2017-10-02T15:17:35.284Z,70.30
2017-10-02T15:23:01.306Z,70.50
2017-10-02T15:25:30.693Z,70.80
2017-10-02T15:27:58.692Z,70.20
2017-10-02T15:30:26.291Z,70.80
2017-10-02T15:32:53.887Z,72.00
2017-10-02T15:35:21.506Z,72.20
2017-10-02T15:37:49.103Z,73.30
2017-10-02T15:40:17.269Z,73.30
2017-10-02T15:42:44.874Z,74.30
2017-10-02T15:45:12.501Z,74.50
2017-10-02T15:47:50.957Z,75.40
2017-10-02T15:50:18.558Z,75.80
2017-10-02T15:52:46.662Z,75.60
2017-10-02T15:55:15.100Z,76.10
2017-10-02T15:57:42.710Z,76.10
2017-10-02T16:00:13.258Z,76.50
2017-10-02T16:02:40.966Z,76.40
2017-10-02T16:05:09.054Z,76.30
2017-10-02T16:07:36.653Z,77.10
2017-10-02T16:10:09.931Z,77.30
2017-10-02T16:15:24.045Z,77.90
2017-10-02T16:17:54.899Z,79.20
2017-10-02T16:20:22.580Z,80.10
2017-10-02T16:22:50.962Z,79.30
2017-10-02T16:25:19.404Z,79.30
2017-10-02T16:27:47.020Z,79.20
2017-10-02T16:30:15.535Z,78.50
2017-10-02T16:32:43.129Z,78.90
2017-10-02T16:35:11.104Z,79.30
2017-10-02T16:37:38.770Z,78.40
2017-10-02T16:40:06.473Z,78.10
2017-10-02T16:42:34.081Z,78.60
2017-10-02T16:45:01.689Z,78.40
2017-10-02T16:47:29.703Z,78.80
2017-10-02T16:49:57.313Z,78.60
2017-10-02T16:52:24.904Z,78.60
2017-10-02T16:54:52.498Z,78.60
2017-10-02T16:57:20.104Z,78.60
2017-10-02T16:59:48.417Z,78.80
2017-10-02T17:02:16.814Z,78.50
2017-10-02T17:04:45.208Z,78.10
2017-10-02T17:07:13.953Z,77.70
2017-10-02T17:09:42.953Z,78.60
2017-10-02T17:12:10.651Z,78.40
2017-10-02T17:14:39.021Z,80.10
2017-10-02T17:17:07.404Z,79.70
2017-10-02T17:19:35.929Z,79.60
2017-10-02T17:22:04.195Z,80.40
2017-10-02T17:24:32.221Z,81.50
2017-10-02T17:26:59.829Z,80.20
2017-10-02T17:29:27.427Z,78.90
2017-10-02T17:31:55.179Z,78.40
2017-10-02T17:34:22.780Z,78.80
2017-10-02T17:36:51.889Z,78.50
2017-10-02T17:39:20.562Z,78.90
2017-10-02T17:41:48.936Z,78.70
2017-10-02T17:44:17.314Z,79.40
2017-10-02T17:46:45.690Z,78.70
2017-10-02T17:49:13.749Z,78.70
2017-10-02T17:51:41.372Z,78.80
2017-10-02T17:54:08.995Z,78.50
2017-10-02T17:56:37.752Z,77.20
2017-10-02T17:59:05.350Z,77.20
2017-10-02T18:01:33.031Z,77.90
2017-10-02T18:04:01.050Z,77.50
2017-10-02T18:06:28.693Z,77.40
2017-10-02T18:08:57.051Z,77.60
2017-10-02T18:11:25.338Z,77.90
2017-10-02T18:13:52.943Z,77.90
2017-10-02T18:16:21.322Z,78.30
2017-10-02T18:18:50.116Z,78.80
2017-10-02T18:21:18.039Z,78.60
2017-10-02T18:23:45.639Z,78.30
2017-10-02T18:26:14.452Z,79.40
2017-10-02T18:28:42.055Z,79.40
2017-10-02T18:31:09.657Z,79.40
2017-10-02T18:33:38.433Z,79.40
2017-10-02T18:36:06.029Z,79.30
2017-10-02T18:38:33.660Z,79.40
2017-10-02T18:41:03.770Z,81.80
2017-10-02T18:43:31.391Z,81.80
2017-10-02T18:45:59.415Z,82.70
2017-10-02T18:48:27.879Z,83.30
2017-10-02T18:50:55.508Z,83.30
2017-10-02T18:53:24.038Z,83.70
2017-10-02T18:55:52.493Z,83.20
2017-10-02T18:58:20.973Z,82.80
2017-10-02T19:00:50.657Z,82.70
2017-10-02T19:03:22.299Z,82.30
2017-10-02T19:05:50.329Z,82.10
2017-10-02T19:08:18.869Z,82.00
2017-10-02T19:10:46.497Z,82.00
2017-10-02T19:13:14.149Z,82.30
2017-10-02T19:15:41.803Z,82.50
2017-10-02T19:18:10.699Z,83.10
2017-10-02T19:20:40.043Z,82.30
2017-10-02T19:23:07.654Z,82.30
2017-10-02T19:25:36.030Z,83.60
2017-10-02T19:28:05.280Z,83.70
2017-10-02T19:30:35.923Z,84.30
2017-10-02T19:33:03.580Z,84.30
2017-10-02T19:35:31.197Z,84.40
2017-10-02T19:37:58.829Z,84.50
2017-10-02T19:40:26.474Z,84.50
2017-10-02T19:42:54.597Z,84.70
2017-10-02T19:45:22.206Z,85.00
2017-10-02T19:47:50.567Z,85.80
2017-10-02T19:50:19.064Z,85.90
2017-10-02T19:52:46.705Z,86.80
2017-10-02T19:55:14.697Z,87.40
2017-10-02T19:57:42.375Z,87.20
2017-10-02T20:00:10.304Z,87.40
2017-10-02T20:02:38.323Z,87.60
2017-10-02T20:05:06.718Z,86.10
2017-10-02T20:07:35.091Z,86.10
2017-10-02T20:10:04.021Z,85.60
2017-10-02T20:12:31.624Z,85.60
2017-10-02T20:14:59.697Z,85.10
2017-10-02T20:17:27.317Z,85.30
2017-10-02T20:19:54.920Z,86.60
2017-10-02T20:22:22.738Z,86.40
2017-10-02T20:24:51.178Z,86.20
2017-10-02T20:27:20.869Z,86.30
2017-10-02T20:29:48.601Z,86.20
2017-10-02T20:32:16.181Z,86.60
2017-10-02T20:34:43.800Z,86.10
2017-10-02T20:37:11.413Z,87.60
2017-10-02T20:39:39.498Z,87.30
2017-10-02T20:42:07.859Z,86.10
2017-10-02T20:44:35.790Z,86.00
2017-10-02T20:47:03.416Z,86.20
2017-10-02T20:49:31.017Z,87.10
2017-10-02T20:51:59.840Z,88.30
2017-10-02T20:54:27.437Z,87.70
2017-10-02T20:56:55.835Z,88.50
2017-10-02T20:59:23.840Z,88.00
2017-10-02T21:01:51.444Z,87.20
2017-10-02T21:04:19.078Z,87.40
2017-10-02T21:06:46.694Z,88.20
2017-10-02T21:09:14.381Z,89.20
2017-10-02T21:11:42.365Z,90.00
2017-10-02T21:14:09.976Z,89.10
2017-10-02T21:16:37.630Z,87.40
2017-10-02T21:19:05.302Z,86.60
2017-10-02T21:21:32.984Z,86.60
2017-10-02T21:24:01.796Z,86.30
2017-10-02T21:26:29.397Z,86.30
2017-10-02T21:28:57.002Z,85.50
2017-10-02T21:31:24.619Z,85.80
2017-10-02T21:33:52.212Z,86.70
2017-10-02T21:36:20.206Z,86.10
2017-10-02T21:38:47.796Z,85.10
2017-10-02T21:41:16.167Z,86.50
2017-10-02T21:43:44.911Z,86.30
2017-10-02T21:46:12.501Z,86.20
2017-10-02T21:48:40.122Z,87.20
2017-10-02T21:51:08.116Z,87.50
2017-10-02T21:53:35.716Z,87.50
2017-10-02T21:56:04.073Z,88.10
2017-10-02T21:58:32.128Z,88.00
2017-10-02T22:00:59.728Z,87.30
2017-10-02T22:03:28.089Z,87.90
2017-10-02T22:05:56.480Z,87.50
2017-10-02T22:08:24.858Z,88.00
2017-10-02T22:10:53.633Z,88.90
2017-10-02T22:13:21.246Z,88.90
2017-10-02T22:15:48.846Z,90.20
2017-10-02T22:18:16.544Z,90.40
2017-10-02T22:20:44.142Z,90.60
2017-10-02T22:23:12.240Z,90.50
2017-10-02T22:25:39.861Z,90.20
2017-10-02T22:28:07.464Z,90.50
